Time;durP1;ratioP1;P1;durP2;ratioP2;P2;SDS_P1;SDS_P2;PMS_P1;PMS_P2;Temp;Humidity;BMP_temperature;BMP_pressure;BME280_temperature;BME280_humidity;BME280_pressure;Samples;Min_cycle;Max_cycle;Signal;HPM_P1;HPM_P2
2021/11/28 00:01:07;;;;;;;33.98;25.25;;;22.00;78.90;;;;;;1928383;73;21154;-82
2021/11/28 00:03:42;;;;;;;32.58;23.38;;;22.10;78.80;;;;;;1929116;72;21113;-82
2021/11/28 00:06:23;;;;;;;32.95;24.57;;;22.10;78.50;;;;;;1930664;73;21197;-81
2021/11/28 00:11:29;;;;;;;32.15;25.12;;;22.10;79.30;;;;;;1924162;73;22080;-81
2021/11/28 00:14:13;;;;;;;31.62;24.35;;;22.20;78.70;;;;;;1930377;73;21098;-82
2021/11/28 00:16:26;;;;;;;33.08;24.98;;;22.20;79.80;;;;;;1917270;73;21134;-82
2021/11/28 00:18:57;;;;;;;30.12;24.20;;;22.30;78.30;;;;;;1942543;73;21082;-82
2021/11/28 00:21:28;;;;;;;35.50;25.17;;;22.30;78.10;;;;;;1926314;72;21235;-82
2021/11/28 00:23:59;;;;;;;32.98;24.67;;;22.40;77.80;;;;;;1922937;73;21659;-82
2021/11/28 00:26:49;;;;;;;32.73;24.05;;;22.40;77.90;;;;;;1932073;73;21118;-82
2021/11/28 00:29:20;;;;;;;31.97;24.75;;;22.40;77.60;;;;;;1909573;75;21098;-81
2021/11/28 00:31:57;;;;;;;35.68;26.02;;;22.50;76.90;;;;;;1914754;75;21122;-82
2021/11/28 00:34:25;;;;;;;35.78;25.45;;;22.50;76.80;;;;;;1896896;75;21138;-80
2021/11/28 00:36:56;;;;;;;32.70;23.22;;;22.50;76.60;;;;;;1913183;75;21117;-84
2021/11/28 00:39:27;;;;;;;30.88;23.85;;;22.60;76.80;;;;;;1898485;74;21590;-83
2021/11/28 00:41:58;;;;;;;31.15;23.32;;;22.70;76.40;;;;;;1906947;74;21130;-71
2021/11/28 00:44:30;;;;;;;29.35;23.02;;;22.80;76.00;;;;;;1904666;75;21207;-71
2021/11/28 00:47:01;;;;;;;31.37;22.90;;;22.90;75.70;;;;;;1906761;74;21536;-70
2021/11/28 00:49:34;;;;;;;30.97;24.12;;;22.90;75.40;;;;;;1870083;76;21184;-72
2021/11/28 00:52:05;;;;;;;32.80;23.80;;;23.00;75.30;;;;;;1920037;73;21714;-70
2021/11/28 00:54:36;;;;;;;31.70;24.77;;;23.00;74.90;;;;;;1866364;75;21140;-70
2021/11/28 00:57:08;;;;;;;37.23;24.32;;;23.00;74.80;;;;;;1910174;74;21123;-70
2021/11/28 00:59:39;;;;;;;35.80;25.92;;;23.10;74.50;;;;;;1907774;74;21195;-71
2021/11/28 01:02:10;;;;;;;30.48;24.15;;;23.10;74.60;;;;;;1911602;74;21144;-70
2021/11/28 01:04:40;;;;;;;33.73;24.10;;;23.20;74.50;;;;;;1913943;73;21748;-71
2021/11/28 01:07:12;;;;;;;32.13;22.80;;;23.20;74.30;;;;;;1911165;73;21155;-71
2021/11/28 01:10:02;;;;;;;30.37;23.60;;;23.20;74.50;;;;;;1907798;75;21143;-71
2021/11/28 01:12:33;;;;;;;34.35;24.90;;;23.20;74.40;;;;;;1913780;73;21156;-71
2021/11/28 01:15:05;;;;;;;40.00;23.42;;;23.10;74.40;;;;;;1897360;75;21174;-71
2021/11/28 01:17:38;;;;;;;31.68;23.62;;;23.20;74.00;;;;;;1896496;75;21736;-71
2021/11/28 01:20:10;;;;;;;35.20;24.65;;;23.20;73.60;;;;;;1869392;75;21151;-71
2021/11/28 01:22:42;;;;;;;29.35;23.22;;;23.20;73.60;;;;;;1887747;74;21155;-71
2021/11/28 01:25:15;;;;;;;28.55;22.95;;;23.30;73.30;;;;;;1884445;75;21200;-71
2021/11/28 01:27:46;;;;;;;26.87;22.17;;;23.30;73.20;;;;;;1912284;75;21200;-70
2021/11/28 01:30:17;;;;;;;31.42;22.13;;;23.30;72.90;;;;;;1901287;74;21105;-71
2021/11/28 01:32:50;;;;;;;30.10;22.20;;;23.30;73.30;;;;;;1895908;75;21184;-71
2021/11/28 01:35:21;;;;;;;29.27;22.55;;;23.30;73.10;;;;;;1899552;75;21166;-71
2021/11/28 01:37:52;;;;;;;34.88;22.82;;;23.40;72.60;;;;;;1888619;75;21123;-71
2021/11/28 01:40:23;;;;;;;33.50;23.42;;;23.40;72.50;;;;;;1905574;74;21100;-71
2021/11/28 01:42:56;;;;;;;30.37;22.65;;;23.40;72.60;;;;;;1938264;74;21151;-71
2021/11/28 01:45:29;;;;;;;34.27;23.12;;;23.40;72.30;;;;;;1933473;74;21682;-71
2021/11/28 01:48:02;;;;;;;33.65;21.68;;;23.40;72.20;;;;;;1886728;75;21133;-72
2021/11/28 01:50:35;;;;;;;26.82;21.05;;;23.50;72.50;;;;;;1906320;73;21103;-71
2021/11/28 01:53:08;;;;;;;34.15;21.20;;;23.50;72.30;;;;;;1859487;76;21144;-71
2021/11/28 01:55:39;;;;;;;30.55;20.45;;;23.60;72.00;;;;;;1881392;75;21225;-71
2021/11/28 01:58:10;;;;;;;29.02;20.77;;;23.70;71.80;;;;;;1910864;75;21100;-71
2021/11/28 02:00:43;;;;;;;28.23;20.40;;;23.80;71.80;;;;;;1908764;73;21151;-71
2021/11/28 02:03:16;;;;;;;29.45;21.37;;;23.80;71.40;;;;;;1885633;74;21160;-71
2021/11/28 02:05:49;;;;;;;28.45;21.77;;;23.90;70.90;;;;;;1909295;73;21184;-72
2021/11/28 02:08:21;;;;;;;27.80;20.25;;;23.90;70.80;;;;;;1910364;75;21155;-71
2021/11/28 02:10:52;;;;;;;27.32;19.92;;;24.00;70.50;;;;;;1888315;75;21080;-71
2021/11/28 02:13:24;;;;;;;29.48;20.82;;;24.00;70.20;;;;;;1876242;75;21123;-72
2021/11/28 02:15:55;;;;;;;29.23;20.77;;;24.10;70.20;;;;;;1849588;76;21185;-72
2021/11/28 02:18:27;;;;;;;32.25;20.17;;;24.10;70.30;;;;;;1877199;76;21221;-71
2021/11/28 02:21:01;;;;;;;26.12;20.12;;;24.10;69.90;;;;;;1837331;77;21077;-71
2021/11/28 02:23:32;;;;;;;29.67;19.40;;;24.20;69.70;;;;;;1873085;76;21731;-71
2021/11/28 02:26:06;;;;;;;26.73;20.55;;;24.20;68.80;;;;;;1862297;76;21917;-71
2021/11/28 02:28:40;;;;;;;23.77;18.20;;;24.20;68.80;;;;;;1859090;76;21718;-72
2021/11/28 02:31:11;;;;;;;26.02;20.60;;;24.30;68.40;;;;;;1843870;76;21622;-71
2021/11/28 02:33:42;;;;;;;26.15;19.60;;;24.30;68.30;;;;;;1853175;76;21178;-71
2021/11/28 02:36:13;;;;;;;24.98;18.27;;;24.30;68.60;;;;;;1814000;78;21816;-71
2021/11/28 02:38:45;;;;;;;28.15;19.80;;;24.40;68.20;;;;;;1847576;76;21061;-72
2021/11/28 02:41:15;;;;;;;27.45;18.82;;;24.40;67.90;;;;;;1836462;78;21224;-72
2021/11/28 02:43:48;;;;;;;24.98;19.90;;;24.40;68.30;;;;;;1853038;76;22418;-72
2021/11/28 02:46:19;;;;;;;29.57;19.90;;;24.40;68.80;;;;;;1879767;76;21146;-71
2021/11/28 02:48:50;;;;;;;27.02;19.15;;;24.50;68.60;;;;;;1879845;76;21168;-71
2021/11/28 02:51:21;;;;;;;29.80;18.65;;;24.50;68.50;;;;;;1854546;76;21181;-72
2021/11/28 02:53:52;;;;;;;30.02;19.45;;;24.60;68.00;;;;;;1880006;76;21090;-72
2021/11/28 02:56:23;;;;;;;28.02;19.55;;;24.60;67.60;;;;;;1842611;76;21093;-72
2021/11/28 02:58:53;;;;;;;29.87;19.42;;;24.70;67.70;;;;;;1849275;76;21131;-72
2021/11/28 03:01:25;;;;;;;26.65;18.57;;;24.80;67.90;;;;;;1832780;76;21664;-72
2021/11/28 03:03:56;;;;;;;26.55;19.10;;;24.80;68.10;;;;;;1849010;76;21158;-72
2021/11/28 03:06:27;;;;;;;28.55;19.12;;;24.90;67.70;;;;;;1849833;76;21166;-71
2021/11/28 03:08:58;;;;;;;28.20;18.48;;;25.00;68.00;;;;;;1873053;76;21695;-72
2021/11/28 03:11:29;;;;;;;27.80;19.67;;;25.00;67.40;;;;;;1877536;73;21689;-70
2021/11/28 03:14:00;;;;;;;24.85;18.37;;;25.10;67.40;;;;;;1910472;73;22273;-72
2021/11/28 03:16:30;;;;;;;23.57;18.77;;;25.10;67.50;;;;;;1908446;73;21769;-71
2021/11/28 03:19:01;;;;;;;25.65;18.52;;;25.20;66.90;;;;;;1907143;73;21610;-71
2021/11/28 03:21:34;;;;;;;27.60;19.55;;;25.30;66.20;;;;;;1873875;75;21160;-72
2021/11/28 03:24:06;;;;;;;22.60;18.10;;;25.30;66.30;;;;;;1875050;75;21133;-72
2021/11/28 03:26:39;;;;;;;25.85;17.48;;;25.40;65.90;;;;;;1909720;73;21123;-71
2021/11/28 03:29:12;;;;;;;27.70;18.50;;;25.50;65.90;;;;;;1902203;73;21120;-71
2021/11/28 03:31:46;;;;;;;23.80;17.85;;;25.50;66.30;;;;;;1874294;75;21076;-71
2021/11/28 03:34:19;;;;;;;29.18;17.95;;;25.70;65.60;;;;;;1908798;73;21121;-71
2021/11/28 03:36:52;;;;;;;23.38;16.77;;;25.80;65.80;;;;;;1910225;73;21140;-72
2021/11/28 03:39:25;;;;;;;24.07;16.42;;;25.90;64.10;;;;;;1908765;75;21127;-71
2021/11/28 03:41:58;;;;;;;18.92;14.78;;;26.00;63.00;;;;;;1903302;73;21729;-71
2021/11/28 03:44:30;;;;;;;21.73;14.93;;;26.10;62.20;;;;;;1906487;75;21222;-71
2021/11/28 03:47:01;;;;;;;18.70;14.87;;;26.20;61.30;;;;;;1872560;76;21141;-71
2021/11/28 03:49:32;;;;;;;26.12;14.58;;;26.30;60.90;;;;;;1872984;76;21199;-71
2021/11/28 03:52:03;;;;;;;19.40;14.45;;;26.40;59.80;;;;;;1869665;76;21910;-72
2021/11/28 03:54:35;;;;;;;25.50;15.65;;;26.40;59.60;;;;;;1873178;75;21219;-70
2021/11/28 03:57:06;;;;;;;19.27;14.95;;;26.50;59.70;;;;;;1872157;76;21139;-70
2021/11/28 03:59:37;;;;;;;20.48;14.33;;;26.50;59.60;;;;;;1906764;75;21193;-70
2021/11/28 04:02:08;;;;;;;26.02;14.98;;;26.60;59.40;;;;;;1905946;73;21563;-71
2021/11/28 04:04:38;;;;;;;22.60;16.17;;;26.70;59.10;;;;;;1909019;75;21193;-72
2021/11/28 04:07:10;;;;;;;22.55;15.93;;;26.70;59.40;;;;;;1910106;75;21182;-72
2021/11/28 04:09:40;;;;;;;22.75;15.28;;;26.90;59.40;;;;;;1873115;76;21173;-70
2021/11/28 04:12:12;;;;;;;20.60;14.83;;;27.00;58.90;;;;;;1896269;75;21485;-69
2021/11/28 04:14:43;;;;;;;20.23;14.85;;;27.10;58.50;;;;;;1935239;74;21160;-70
2021/11/28 04:17:14;;;;;;;21.30;14.03;;;27.20;59.00;;;;;;1897984;74;21132;-70
2021/11/28 04:19:45;;;;;;;19.70;14.10;;;27.30;57.80;;;;;;1890513;75;21138;-71
2021/11/28 04:22:16;;;;;;;19.90;13.55;;;27.40;57.70;;;;;;1907009;75;21139;-71
2021/11/28 04:24:47;;;;;;;24.40;14.53;;;27.40;57.70;;;;;;1910775;74;21221;-71
2021/11/28 04:27:17;;;;;;;17.42;13.32;;;27.60;58.00;;;;;;1904518;74;21120;-71
2021/11/28 04:29:48;;;;;;;19.32;13.85;;;27.60;58.10;;;;;;1918804;74;21096;-71
2021/11/28 04:32:19;;;;;;;23.27;14.15;;;27.70;57.20;;;;;;1897956;74;21140;-71
2021/11/28 04:34:50;;;;;;;17.20;13.25;;;27.80;57.10;;;;;;1877442;76;22236;-71
2021/11/28 04:37:21;;;;;;;23.65;14.10;;;27.90;57.10;;;;;;1898603;74;21097;-71
2021/11/28 04:39:53;;;;;;;19.67;14.45;;;28.00;56.70;;;;;;1876386;76;21152;-71
2021/11/28 04:42:24;;;;;;;16.87;13.40;;;28.00;56.00;;;;;;1877485;76;21116;-71
2021/11/28 04:44:55;;;;;;;17.05;12.35;;;28.10;56.00;;;;;;1911545;74;21582;-71
2021/11/28 04:47:26;;;;;;;18.40;13.05;;;28.20;56.00;;;;;;1879115;74;21128;-71
2021/11/28 04:49:57;;;;;;;17.92;13.18;;;28.20;55.30;;;;;;1893739;75;21116;-71
2021/11/28 04:52:28;;;;;;;18.65;12.47;;;28.30;55.50;;;;;;1903826;75;21843;-71
2021/11/28 04:54:59;;;;;;;17.45;12.85;;;28.40;56.10;;;;;;1907383;74;21468;-71
2021/11/28 04:57:30;;;;;;;23.75;13.62;;;28.40;55.50;;;;;;1906483;74;21537;-70
2021/11/28 05:00:01;;;;;;;19.35;13.90;;;28.50;55.10;;;;;;1929402;73;21135;-69
2021/11/28 05:02:32;;;;;;;19.75;13.62;;;28.60;54.80;;;;;;1901998;74;21159;-71
2021/11/28 05:05:03;;;;;;;19.67;13.98;;;28.70;54.90;;;;;;1895841;75;21140;-70
2021/11/28 05:07:34;;;;;;;20.97;13.90;;;28.70;54.50;;;;;;1893558;75;21158;-71
2021/11/28 05:10:06;;;;;;;22.22;14.68;;;28.80;53.90;;;;;;1875627;76;21116;-70
2021/11/28 05:12:37;;;;;;;22.95;13.90;;;28.80;53.70;;;;;;1891908;75;21611;-71
2021/11/28 05:15:10;;;;;;;17.82;13.30;;;28.80;53.80;;;;;;1919368;75;21127;-70
2021/11/28 05:17:40;;;;;;;17.73;13.18;;;28.80;53.80;;;;;;1867545;75;21213;-70
2021/11/28 05:20:11;;;;;;;21.55;16.00;;;28.90;54.80;;;;;;1856917;76;21178;-72
2021/11/28 05:22:43;;;;;;;24.92;13.30;;;28.90;53.70;;;;;;1870011;76;21198;-70
2021/11/28 05:25:14;;;;;;;19.00;12.25;;;28.90;53.80;;;;;;1901989;75;21189;-71
2021/11/28 05:27:47;;;;;;;20.32;13.25;;;28.90;53.20;;;;;;1849153;76;21232;-71
2021/11/28 05:30:18;;;;;;;24.23;13.18;;;28.90;53.40;;;;;;1865984;76;21564;-71
2021/11/28 05:32:48;;;;;;;17.87;11.75;;;29.00;54.20;;;;;;1860836;76;21241;-70
2021/11/28 05:35:26;;;;;;;16.65;11.40;;;29.10;53.20;;;;;;1889370;75;21658;-70
2021/11/28 05:37:57;;;;;;;14.78;11.38;;;29.10;52.80;;;;;;1846825;77;21069;-70
2021/11/28 05:40:28;;;;;;;15.78;11.55;;;29.20;52.50;;;;;;1847935;76;21179;-76
2021/11/28 05:42:59;;;;;;;18.02;11.57;;;29.20;52.80;;;;;;1887972;76;21093;-70
2021/11/28 05:45:30;;;;;;;16.05;11.55;;;29.30;52.50;;;;;;1856168;77;21260;-71
2021/11/28 05:48:01;;;;;;;17.75;12.45;;;29.30;52.20;;;;;;1823490;77;21116;-71
2021/11/28 05:50:33;;;;;;;15.90;10.20;;;29.30;52.30;;;;;;1849880;77;21140;-71
2021/11/28 05:53:04;;;;;;;16.12;11.22;;;29.30;51.60;;;;;;1826189;78;21136;-71
2021/11/28 05:55:35;;;;;;;16.80;10.85;;;29.30;52.00;;;;;;1810311;78;21113;-70
2021/11/28 05:58:06;;;;;;;13.53;10.05;;;29.30;51.80;;;;;;1865467;76;21163;-70
2021/11/28 06:00:37;;;;;;;16.52;10.35;;;29.40;52.10;;;;;;1872451;76;21669;-71
2021/11/28 06:03:09;;;;;;;17.95;10.78;;;29.40;52.50;;;;;;1865562;75;21224;-70
2021/11/28 06:05:42;;;;;;;17.77;10.98;;;29.40;51.20;;;;;;1866558;76;21110;-70
2021/11/28 06:08:12;;;;;;;20.17;10.85;;;29.40;51.40;;;;;;1881535;76;21235;-70
2021/11/28 06:10:44;;;;;;;14.18;10.48;;;29.40;51.20;;;;;;1881831;76;21618;-70
2021/11/28 06:13:15;;;;;;;17.05;9.90;;;29.40;51.20;;;;;;1875083;76;21095;-70
2021/11/28 06:15:45;;;;;;;13.32;9.20;;;29.40;51.30;;;;;;1873096;74;21644;-71
2021/11/28 06:18:16;;;;;;;14.07;9.88;;;29.50;51.10;;;;;;1863503;76;21143;-70
2021/11/28 06:20:47;;;;;;;17.42;10.43;;;29.50;50.70;;;;;;1864540;76;21159;-71
2021/11/28 06:23:18;;;;;;;15.25;9.28;;;29.50;50.70;;;;;;1867332;76;21139;-70
2021/11/28 06:25:49;;;;;;;12.05;9.45;;;29.60;51.00;;;;;;1869405;76;21079;-70
2021/11/28 06:28:21;;;;;;;13.25;9.18;;;29.60;50.50;;;;;;1857972;76;21135;-70
2021/11/28 06:30:52;;;;;;;14.58;8.88;;;29.60;50.20;;;;;;1867249;76;21175;-71
2021/11/28 06:33:22;;;;;;;18.20;9.90;;;29.60;51.30;;;;;;1866442;76;21120;-71
2021/11/28 06:35:54;;;;;;;15.53;8.63;;;29.60;50.60;;;;;;1868345;76;21189;-70
2021/11/28 06:38:25;;;;;;;12.88;8.28;;;29.60;50.50;;;;;;1866185;76;21122;-70
2021/11/28 06:40:56;;;;;;;14.93;8.88;;;29.60;49.50;;;;;;1870779;76;21576;-70
2021/11/28 06:43:27;;;;;;;14.15;8.43;;;29.60;49.60;;;;;;1867673;76;21162;-70
2021/11/28 06:45:58;;;;;;;16.75;8.83;;;29.70;49.20;;;;;;1853173;76;21208;-70
2021/11/28 06:48:30;;;;;;;16.50;9.03;;;29.70;49.40;;;;;;1858562;76;21281;-69
2021/11/28 06:51:01;;;;;;;13.20;8.25;;;29.70;49.30;;;;;;1871194;75;22290;-71
2021/11/28 06:53:32;;;;;;;15.98;8.53;;;29.70;49.50;;;;;;1852325;76;21260;-71
2021/11/28 06:56:04;;;;;;;16.65;8.83;;;29.80;49.30;;;;;;1840520;76;21186;-71
2021/11/28 06:58:36;;;;;;;13.58;8.68;;;29.80;49.60;;;;;;1824903;78;21154;-70
2021/11/28 07:01:07;;;;;;;14.93;8.88;;;29.80;49.10;;;;;;1827026;78;21559;-70
2021/11/28 07:03:39;;;;;;;15.50;8.33;;;29.80;49.40;;;;;;1829374;76;21205;-70
2021/11/28 07:06:09;;;;;;;13.62;8.58;;;29.80;48.70;;;;;;1842330;76;21565;-71
2021/11/28 07:08:40;;;;;;;18.52;9.13;;;29.90;48.70;;;;;;1830543;78;21080;-70
2021/11/28 07:11:11;;;;;;;14.87;9.15;;;29.90;49.50;;;;;;1861378;75;21138;-70
2021/11/28 07:13:41;;;;;;;16.27;9.50;;;29.80;49.30;;;;;;1862534;75;21249;-69
2021/11/28 07:16:13;;;;;;;19.25;9.08;;;29.80;49.00;;;;;;1833026;76;21173;-70
2021/11/28 07:18:45;;;;;;;12.78;9.30;;;29.90;49.20;;;;;;1868059;76;21159;-70
2021/11/28 07:21:16;;;;;;;15.23;8.95;;;29.80;49.30;;;;;;1870684;75;21167;-70
2021/11/28 07:23:48;;;;;;;14.47;9.60;;;29.80;49.40;;;;;;1869480;76;21231;-70
2021/11/28 07:26:20;;;;;;;16.02;8.65;;;29.80;48.90;;;;;;1876474;75;21140;-69
2021/11/28 07:28:51;;;;;;;12.95;8.88;;;29.90;50.00;;;;;;1824556;76;21166;-70
2021/11/28 07:31:22;;;;;;;11.22;9.03;;;29.80;49.00;;;;;;1853170;76;21100;-70
2021/11/28 07:33:54;;;;;;;12.50;8.73;;;29.80;49.40;;;;;;1868397;75;21710;-70
2021/11/28 07:36:25;;;;;;;15.48;9.90;;;29.80;49.20;;;;;;1879394;76;21674;-70
2021/11/28 07:38:55;;;;;;;13.40;8.98;;;29.80;49.70;;;;;;1877913;75;21198;-70
2021/11/28 07:41:26;;;;;;;11.70;8.73;;;29.70;49.60;;;;;;1878599;75;21207;-70
2021/11/28 07:43:57;;;;;;;14.05;9.43;;;29.70;49.40;;;;;;1853681;76;21205;-70
2021/11/28 07:46:28;;;;;;;14.30;9.08;;;29.70;49.40;;;;;;1877794;76;21128;-69
2021/11/28 07:48:59;;;;;;;11.63;8.75;;;29.70;50.30;;;;;;1875687;76;21207;-70
2021/11/28 07:51:31;;;;;;;17.25;9.58;;;29.70;49.10;;;;;;1868239;76;21599;-71
2021/11/28 07:54:01;;;;;;;15.48;9.25;;;29.70;49.50;;;;;;1879499;75;21112;-70
2021/11/28 07:56:32;;;;;;;15.23;10.15;;;29.60;49.50;;;;;;1877986;76;21155;-70
2021/11/28 07:59:04;;;;;;;14.15;8.68;;;29.60;49.70;;;;;;1908699;75;21190;-70
2021/11/28 08:01:35;;;;;;;13.85;9.08;;;29.60;50.30;;;;;;1882436;75;21108;-71
2021/11/28 08:04:06;;;;;;;12.80;9.18;;;29.60;50.50;;;;;;1855842;76;21199;-70
2021/11/28 08:06:37;;;;;;;13.38;9.35;;;29.50;50.10;;;;;;1872321;76;21761;-71
2021/11/28 08:09:08;;;;;;;17.17;10.40;;;29.50;50.40;;;;;;1846098;76;21135;-71
2021/11/28 08:11:39;;;;;;;15.72;10.43;;;29.50;50.10;;;;;;1846551;78;21142;-70
2021/11/28 08:14:09;;;;;;;12.95;9.20;;;29.50;50.30;;;;;;1871817;76;21077;-70
2021/11/28 08:16:40;;;;;;;13.62;8.98;;;29.50;50.10;;;;;;1868654;76;21612;-70
2021/11/28 08:19:11;;;;;;;13.95;10.63;;;29.50;50.50;;;;;;1821117;78;21217;-70
2021/11/28 08:21:42;;;;;;;15.58;9.65;;;29.40;50.50;;;;;;1875062;75;21095;-70
2021/11/28 08:24:13;;;;;;;14.35;9.98;;;29.40;50.90;;;;;;1865909;75;21613;-70
2021/11/28 08:26:45;;;;;;;15.60;9.33;;;29.40;52.00;;;;;;1879589;75;21120;-70
2021/11/28 08:29:16;;;;;;;12.95;9.18;;;29.50;51.20;;;;;;1878713;75;21127;-70
2021/11/28 08:31:47;;;;;;;13.13;9.65;;;29.50;50.90;;;;;;1878346;75;21226;-70
2021/11/28 08:34:19;;;;;;;16.15;10.30;;;29.50;50.80;;;;;;1855007;76;21123;-70
2021/11/28 08:36:50;;;;;;;14.70;9.68;;;29.40;50.40;;;;;;1875446;76;21225;-70
2021/11/28 08:39:21;;;;;;;14.23;8.70;;;29.40;50.80;;;;;;1876001;76;21207;-71
2021/11/28 08:41:52;;;;;;;15.15;9.55;;;29.40;51.00;;;;;;1853067;76;21138;-71
2021/11/28 08:44:23;;;;;;;15.53;9.50;;;29.40;51.00;;;;;;1823435;78;21290;-71
2021/11/28 08:46:54;;;;;;;18.95;9.33;;;29.40;50.80;;;;;;1877501;76;21083;-70
2021/11/28 08:49:25;;;;;;;13.95;9.05;;;29.30;50.80;;;;;;1863803;75;21172;-71
2021/11/28 08:51:56;;;;;;;12.28;8.33;;;29.30;51.00;;;;;;1827100;77;21634;-71
2021/11/28 08:54:30;;;;;;;14.75;9.83;;;29.30;51.20;;;;;;1880019;76;21557;-70
2021/11/28 08:57:01;;;;;;;15.25;9.03;;;29.30;51.60;;;;;;1872776;76;21116;-71
2021/11/28 08:59:31;;;;;;;16.67;9.63;;;29.30;51.30;;;;;;1874180;76;21115;-70
2021/11/28 09:02:03;;;;;;;16.73;10.25;;;29.30;51.30;;;;;;1850311;75;21055;-70
2021/11/28 09:04:34;;;;;;;13.72;9.33;;;29.20;51.30;;;;;;1856671;75;21132;-69
2021/11/28 09:07:05;;;;;;;12.37;9.10;;;29.20;51.40;;;;;;1876287;76;21167;-70
2021/11/28 09:09:36;;;;;;;11.38;9.15;;;29.10;51.40;;;;;;1875418;76;21158;-70
2021/11/28 09:12:08;;;;;;;14.20;9.55;;;29.10;51.80;;;;;;1876059;76;21689;-70
2021/11/28 09:14:38;;;;;;;17.65;9.95;;;29.10;51.70;;;;;;1879721;76;21182;-70
2021/11/28 09:17:09;;;;;;;13.18;9.63;;;29.10;51.90;;;;;;1880602;75;21225;-69
2021/11/28 09:22:22;;;;;;;13.68;9.43;;;29.10;51.90;;;;;;1830845;77;21095;-70
2021/11/28 09:24:47;;;;;;;16.35;10.70;;;29.00;51.80;;;;;;1884926;75;21129;-70
2021/11/28 09:27:21;;;;;;;15.43;9.60;;;29.00;52.00;;;;;;1887116;75;21157;-70
2021/11/28 09:29:49;;;;;;;13.83;9.58;;;29.00;52.20;;;;;;1884352;76;21656;-70
2021/11/28 09:32:20;;;;;;;15.30;9.63;;;28.90;52.30;;;;;;1913230;74;21120;-70
2021/11/28 09:34:51;;;;;;;16.90;9.83;;;28.90;52.50;;;;;;1877249;76;21135;-70
2021/11/28 09:37:22;;;;;;;15.70;10.08;;;28.80;52.50;;;;;;1919876;75;21060;-69
2021/11/28 09:39:52;;;;;;;14.75;9.60;;;28.80;52.80;;;;;;1840556;77;21229;-71
2021/11/28 09:42:25;;;;;;;17.67;10.35;;;28.80;52.60;;;;;;1849150;77;21095;-71
2021/11/28 09:44:59;;;;;;;14.90;9.95;;;28.70;52.80;;;;;;1886448;76;21087;-72
2021/11/28 09:47:31;;;;;;;14.15;9.35;;;28.70;52.90;;;;;;1882513;76;21133;-71
2021/11/28 09:50:04;;;;;;;12.60;9.53;;;28.70;53.00;;;;;;1871639;76;21118;-72
2021/11/28 09:52:35;;;;;;;14.50;10.10;;;28.70;53.20;;;;;;1879458;76;21624;-70
2021/11/28 09:55:08;;;;;;;12.00;9.25;;;28.60;52.90;;;;;;1875420;74;21587;-70
2021/11/28 09:57:42;;;;;;;16.70;10.35;;;28.50;53.00;;;;;;1884915;74;21138;-72
2021/11/28 10:00:22;;;;;;;17.87;9.50;;;28.40;53.10;;;;;;1887723;74;21148;-70
2021/11/28 10:02:50;;;;;;;15.35;9.85;;;28.40;53.50;;;;;;1879555;74;21153;-72
2021/11/28 10:05:34;;;;;;;19.15;10.28;;;28.40;53.70;;;;;;1878544;75;21166;-73
2021/11/28 10:08:06;;;;;;;15.13;10.08;;;28.40;53.90;;;;;;1884927;76;21153;-73
2021/11/28 10:10:45;;;;;;;16.50;10.78;;;28.30;54.00;;;;;;1848067;76;21158;-71
2021/11/28 10:13:23;;;;;;;18.77;10.72;;;28.30;54.30;;;;;;1876759;74;21728;-72
2021/11/28 10:15:54;;;;;;;19.20;11.08;;;28.30;54.30;;;;;;1848043;76;21630;-72
2021/11/28 10:18:25;;;;;;;20.72;11.30;;;28.20;54.60;;;;;;1850981;76;21160;-72
2021/11/28 10:20:57;;;;;;;25.88;11.57;;;28.20;54.70;;;;;;1804007;79;21183;-72
2021/11/28 10:23:29;;;;;;;15.83;10.88;;;28.20;54.90;;;;;;1835113;76;21155;-72
2021/11/28 10:26:02;;;;;;;19.65;11.05;;;28.10;55.10;;;;;;1837238;77;21611;-72
2021/11/28 10:28:33;;;;;;;17.75;11.18;;;28.00;55.30;;;;;;1840792;77;21108;-71
2021/11/28 10:31:05;;;;;;;22.50;12.63;;;28.00;55.50;;;;;;1841607;77;21651;-71
2021/11/28 10:33:37;;;;;;;16.90;11.65;;;27.90;56.30;;;;;;1824644;78;21215;-73
2021/11/28 10:36:10;;;;;;;16.65;11.50;;;27.90;55.80;;;;;;1808209;79;21654;-71
2021/11/28 10:38:44;;;;;;;21.85;13.90;;;27.90;55.80;;;;;;1816974;78;21163;-69
2021/11/28 10:41:17;;;;;;;19.30;12.30;;;27.80;55.80;;;;;;1806388;78;21160;-70
2021/11/28 10:43:49;;;;;;;16.37;11.78;;;27.80;55.90;;;;;;1837521;76;21722;-70
2021/11/28 10:46:30;;;;;;;16.85;10.82;;;27.70;56.00;;;;;;1815203;78;21148;-70
2021/11/28 10:49:00;;;;;;;21.48;12.00;;;27.70;56.20;;;;;;1793080;79;21165;-71
2021/11/28 10:51:32;;;;;;;20.20;12.03;;;27.70;56.40;;;;;;1833153;76;21636;-71
2021/11/28 10:54:09;;;;;;;25.57;14.07;;;27.60;56.40;;;;;;1805524;77;21181;-70
2021/11/28 10:56:42;;;;;;;24.65;13.43;;;27.60;56.60;;;;;;1807910;77;21249;-71
2021/11/28 10:59:15;;;;;;;26.87;14.25;;;27.60;56.70;;;;;;1805136;79;21186;-71
2021/11/28 11:01:47;;;;;;;25.40;13.50;;;27.50;56.80;;;;;;1845159;76;21622;-71
2021/11/28 11:04:21;;;;;;;21.50;13.32;;;27.50;56.90;;;;;;1849043;76;21631;-72
2021/11/28 11:06:54;;;;;;;21.95;14.60;;;27.50;57.00;;;;;;1793150;79;21180;-70
2021/11/28 11:09:25;;;;;;;27.82;14.83;;;27.50;57.20;;;;;;1779295;78;21191;-71
2021/11/28 11:11:56;;;;;;;25.00;14.50;;;27.40;57.30;;;;;;1874663;76;21151;-70
2021/11/28 11:14:28;;;;;;;26.95;16.35;;;27.40;57.40;;;;;;1842860;78;21587;-70
2021/11/28 11:17:02;;;;;;;28.92;15.78;;;27.40;57.40;;;;;;1812029;78;21471;-70
2021/11/28 11:19:35;;;;;;;27.27;16.52;;;27.40;57.60;;;;;;1847549;76;21638;-70
2021/11/28 11:22:06;;;;;;;29.10;18.55;;;27.30;57.40;;;;;;1876204;76;21629;-71
2021/11/28 11:24:40;;;;;;;27.82;18.12;;;27.30;57.80;;;;;;1874855;76;21623;-71
2021/11/28 11:27:14;;;;;;;25.65;17.48;;;27.30;58.20;;;;;;1821488;76;21303;-71
2021/11/28 11:29:50;;;;;;;28.83;16.12;;;27.30;58.40;;;;;;1840497;76;21237;-70
2021/11/28 11:32:22;;;;;;;24.40;16.32;;;27.30;58.40;;;;;;1885967;75;21583;-70
2021/11/28 11:34:55;;;;;;;27.32;17.65;;;27.30;58.60;;;;;;1860138;76;21189;-70
2021/11/28 11:37:29;;;;;;;22.17;14.95;;;27.30;58.70;;;;;;1844947;77;21186;-70
2021/11/28 11:40:03;;;;;;;26.57;17.00;;;27.30;58.90;;;;;;1866472;75;21179;-70
2021/11/28 11:42:32;;;;;;;25.82;16.80;;;27.20;59.00;;;;;;1859769;76;21163;-71
2021/11/28 11:45:03;;;;;;;25.15;15.83;;;27.20;59.20;;;;;;1840515;76;21693;-69
2021/11/28 11:47:35;;;;;;;28.85;15.70;;;27.20;59.10;;;;;;1840938;78;21104;-70
2021/11/28 11:50:07;;;;;;;27.80;15.05;;;27.20;59.40;;;;;;1831499;78;21119;-71
2021/11/28 11:52:38;;;;;;;28.98;17.77;;;27.20;59.50;;;;;;1836076;78;21225;-72
2021/11/28 11:55:11;;;;;;;28.45;17.73;;;27.10;59.50;;;;;;1829288;78;21093;-70
2021/11/28 11:57:45;;;;;;;27.37;16.67;;;27.10;59.50;;;;;;1844338;76;21533;-70
2021/11/28 12:00:16;;;;;;;29.55;16.67;;;27.10;59.60;;;;;;1837146;78;21540;-70
2021/11/28 12:02:50;;;;;;;26.07;17.35;;;27.10;60.40;;;;;;1853075;76;21218;-70
2021/11/28 12:05:23;;;;;;;29.07;17.10;;;27.00;60.60;;;;;;1848899;77;21150;-70
2021/11/28 12:07:56;;;;;;;27.55;17.60;;;27.00;60.70;;;;;;1836265;76;22172;-70
2021/11/28 12:10:29;;;;;;;24.05;16.50;;;27.00;60.30;;;;;;1846194;77;21859;-71
2021/11/28 12:13:02;;;;;;;26.82;17.05;;;26.90;59.80;;;;;;1874594;76;21159;-70
2021/11/28 12:15:36;;;;;;;30.43;17.40;;;26.90;59.70;;;;;;1826444;78;21092;-70
2021/11/28 12:18:08;;;;;;;27.40;16.90;;;26.90;59.80;;;;;;1840170;76;21131;-70
2021/11/28 12:20:41;;;;;;;27.07;16.17;;;26.90;59.90;;;;;;1833714;77;21139;-70
2021/11/28 12:23:12;;;;;;;25.97;16.35;;;26.90;59.80;;;;;;1825458;78;21202;-70
2021/11/28 12:25:47;;;;;;;24.27;16.30;;;26.90;59.80;;;;;;1853535;77;21681;-70
2021/11/28 12:28:20;;;;;;;23.12;15.68;;;26.90;59.90;;;;;;1854108;76;21083;-70
2021/11/28 12:30:51;;;;;;;24.63;16.35;;;26.80;59.90;;;;;;1846921;75;21198;-70
2021/11/28 12:33:25;;;;;;;29.27;16.35;;;26.80;60.00;;;;;;1869957;75;21224;-71
2021/11/28 12:35:55;;;;;;;26.70;17.25;;;26.80;59.90;;;;;;1835797;77;21155;-70
2021/11/28 12:38:28;;;;;;;30.55;17.65;;;26.80;60.00;;;;;;1857322;75;21183;-71
2021/11/28 12:40:59;;;;;;;27.37;18.60;;;26.80;60.20;;;;;;1856398;77;21142;-70
2021/11/28 12:43:31;;;;;;;25.92;17.77;;;26.70;60.20;;;;;;1872513;75;21607;-69
2021/11/28 12:46:02;;;;;;;25.95;17.60;;;26.70;60.10;;;;;;1853919;77;21248;-83
2021/11/28 12:48:33;;;;;;;28.12;16.77;;;26.70;60.20;;;;;;1863766;76;21088;-83
2021/11/28 12:51:05;;;;;;;27.05;17.10;;;26.70;60.50;;;;;;1925069;74;21072;-83
2021/11/28 12:53:40;;;;;;;25.70;16.32;;;26.70;60.40;;;;;;1862607;77;21585;-82
2021/11/28 12:56:13;;;;;;;27.15;17.95;;;26.70;60.50;;;;;;1864406;77;21127;-82
2021/11/28 12:58:46;;;;;;;24.50;17.15;;;26.60;60.40;;;;;;1853516;76;21127;-83